»·PEaware :: CANNON19 KLSV-KLSV

CANNON19 :: KLSV-KLSV

FLIGHT INFORMATION

Flight Status: Arrived
Operator: Unknown
More flights by this operator :: More flights under this callsign
Pilot: Henderson P. (1210)
Aircraft: FAIRCHILD A-10 THUNDERBOLT 2
(A10)
More flights by this aircraft type
Origin: KLSV Nellis AFB
United States
Destination: KLSV Nellis AFB
United States
More flights between these airports :: More routes between these airports
Route: +
File this flight plan on PilotEdge
Remarks:
Altitude:
(Current/Filed)
0ft
Speed:
(Current/Filed)
0kts
Departed: 19-May-19 07:47 PM
Arrived: 19-May-19 09:04 PM
Distance/Time
Traveled:
1nm/1:17
Distance/Time
To Go:
Arrived

Flight Plot

Page will automatically refresh every two minutes.


Map Options




Map Legend


Flown Route
Filed Route
Departure Airport
Arrival Airport
Navaid (VOR, NDB)
Fix

Horizontal Profiles

Position Reports

Time Latitude Longitude Heading Altitude Ground
Speed
19-May-19 19:38 36.228591 -115.048523 132 1853ft 0kts
19-May-19 19:40 36.228591 -115.048523 132 1853ft 0kts
19-May-19 19:41 36.228591 -115.048523 132 1853ft 0kts
19-May-19 19:41 36.228591 -115.048523 132 1853ft 0kts
19-May-19 19:42 36.227924 -115.047833 209 1851ft 6kts
19-May-19 19:44 36.227165 -115.047967 130 1850ft 0kts
19-May-19 19:44 36.227128 -115.047629 40 1850ft 0kts
19-May-19 19:45 36.227181 -115.047570 40 1850ft 4kts
19-May-19 19:47 36.237987 -115.034341 40 1857ft 159kts
19-May-19 19:47 36.274642 -115.000346 356 2603ft 201kts
19-May-19 19:48 36.326536 -115.015418 334 4723ft 185kts
19-May-19 19:49 36.376340 -115.034077 333 6831ft 175kts
19-May-19 19:50 36.425997 -115.053779 327 8515ft 193kts
19-May-19 19:51 36.463634 -115.116368 289 8271ft 264kts
19-May-19 19:52 36.494619 -115.196713 289 8271ft 232kts
19-May-19 19:53 36.521683 -115.263266 289 8265ft 200kts
19-May-19 19:54 36.546540 -115.322612 289 8272ft 182kts
19-May-19 19:55 36.570476 -115.378916 289 8308ft 203kts
19-May-19 19:56 36.583077 -115.455517 272 9084ft 238kts
19-May-19 19:57 36.591930 -115.539748 272 10226ft 247kts
19-May-19 19:58 36.646320 -115.557596 28 10343ft 261kts
19-May-19 19:59 36.706292 -115.511070 28 10303ft 241kts
19-May-19 20:00 36.749284 -115.451467 121 9230ft 248kts
19-May-19 20:01 36.731772 -115.472814 340 9255ft 239kts
19-May-19 20:02 36.801288 -115.447712 14 9150ft 269kts
19-May-19 20:03 36.845222 -115.461240 200 9161ft 211kts
19-May-19 20:04 36.780481 -115.457237 180 8902ft 240kts
19-May-19 20:05 36.752834 -115.398648 40 8881ft 272kts
19-May-19 20:06 36.827087 -115.395356 342 9066ft 290kts
19-May-19 20:07 36.831529 -115.449895 189 8775ft 282kts
19-May-19 20:08 36.754011 -115.456877 150 8880ft 294kts
19-May-19 20:09 36.779233 -115.407658 258 7971ft 270kts
19-May-19 20:10 36.746001 -115.456790 175 7227ft 156kts
19-May-19 20:11 36.757426 -115.409576 11 7620ft 263kts
19-May-19 20:12 36.835579 -115.381231 11 7608ft 309kts
19-May-19 20:13 36.916124 -115.389996 310 7614ft 294kts
19-May-19 20:14 36.893821 -115.445840 186 7589ft 266kts
19-May-19 20:15 36.822035 -115.450028 185 7581ft 254kts
19-May-19 20:16 36.750936 -115.452508 186 7578ft 254kts
19-May-19 20:17 36.679732 -115.455529 186 7578ft 254kts
19-May-19 20:18 36.665222 -115.516544 324 7567ft 272kts
19-May-19 20:19 36.735140 -115.486521 32 7538ft 279kts
19-May-19 20:20 36.793109 -115.435229 31 10196ft 191kts
19-May-19 20:21 36.850929 -115.411751 1 10993ft 266kts
19-May-19 20:22 36.928834 -115.438832 328 10340ft 300kts
19-May-19 20:23 36.892795 -115.483062 187 10303ft 275kts
19-May-19 20:24 36.926818 -115.438878 354 10030ft 306kts
19-May-19 20:25 37.009373 -115.424577 65 9930ft 308kts
19-May-19 20:26 36.970888 -115.413631 221 9649ft 227kts
19-May-19 20:27 36.914945 -115.474673 221 9559ft 277kts
19-May-19 20:28 36.913220 -115.476324 1 7166ft 337kts
19-May-19 20:29 37.007971 -115.493077 351 4612ft 369kts
19-May-19 20:30 37.017518 -115.467702 185 7817ft 247kts
19-May-19 20:31 36.940455 -115.467387 184 8057ft 292kts
19-May-19 20:32 36.860416 -115.466680 142 8838ft 259kts
19-May-19 20:33 36.906625 -115.444846 329 10173ft 287kts
19-May-19 20:34 36.979290 -115.493143 280 10821ft 251kts
19-May-19 20:35 36.939737 -115.454079 127 12343ft 296kts
19-May-19 20:36 36.889960 -115.375429 215 13143ft 226kts
19-May-19 20:37 36.924403 -115.443725 305 13288ft 290kts
19-May-19 20:38 36.932945 -115.479939 131 6161ft 396kts
19-May-19 20:39 36.918350 -115.457398 337 3517ft 366kts
19-May-19 20:40 36.963881 -115.456902 161 4218ft 199kts
19-May-19 20:41 36.897920 -115.468893 187 4031ft 286kts
19-May-19 20:42 36.927877 -115.462517 307 4926ft 262kts
19-May-19 20:43 36.945704 -115.459066 134 3541ft 333kts
19-May-19 20:44 36.950394 -115.414187 260 6620ft 256kts
19-May-19 20:45 36.898528 -115.479849 201 7316ft 229kts
19-May-19 20:46 36.834033 -115.507255 200 9636ft 243kts
19-May-19 20:47 36.770033 -115.534774 201 11874ft 240kts
19-May-19 20:48 36.710704 -115.573355 214 11937ft 225kts
19-May-19 20:49 36.659967 -115.614491 214 11937ft 211kts
19-May-19 20:50 36.610990 -115.653958 211 11934ft 207kts
19-May-19 20:51 36.560357 -115.624886 118 11865ft 231kts
19-May-19 20:52 36.521144 -115.552458 126 11939ft 284kts
19-May-19 20:53 36.476156 -115.466304 126 11947ft 302kts
19-May-19 20:54 36.429876 -115.378200 126 11947ft 305kts
19-May-19 20:55 36.383426 -115.290070 126 11947ft 305kts
19-May-19 20:56 36.341037 -115.198147 120 11890ft 309kts
19-May-19 20:57 36.304100 -115.128800 134 9196ft 197kts
19-May-19 20:58 36.269348 -115.079393 141 5181ft 203kts
19-May-19 20:59 36.267535 -115.084407 42 4704ft 199kts
19-May-19 21:00 36.256250 -115.039855 35 3603ft 172kts
19-May-19 21:01 36.259291 -115.012870 204 2461ft 125kts
19-May-19 21:02 36.241429 -115.030749 220 1858ft 44kts
19-May-19 21:03 36.235009 -115.039770 288 1860ft 21kts
19-May-19 21:04 36.230113 -115.045684 277 1854ft 17kts
19-May-19 21:05 36.230632 -115.047281 219 1855ft 0kts
19-May-19 21:06 36.230632 -115.047281 219 1855ft 0kts
19-May-19 21:07 36.230632 -115.047281 219 1855ft 0kts
19-May-19 21:08 36.230632 -115.047281 219 1855ft 0kts
19-May-19 21:09 36.230632 -115.047281 219 1855ft 0kts
19-May-19 21:10 36.230632 -115.047281 219 1855ft 0kts
19-May-19 21:11 36.230632 -115.047281 219 1855ft 0kts
19-May-19 21:12 36.230632 -115.047281 219 1855ft 0kts
19-May-19 21:13 36.230632 -115.047281 219 1855ft 0kts
19-May-19 21:14 36.230632 -115.047281 219 1855ft 0kts
19-May-19 21:15 36.230632 -115.047281 219 1855ft 0kts
19-May-19 21:16 36.230632 -115.047281 219 1855ft 0kts
19-May-19 21:17 36.230632 -115.047281 219 1855ft 0kts
19-May-19 21:18 36.230632 -115.047281 219 1855ft 0kts

Navigation Log

Ident Type
Flight plan parsing failed, navigation log unavailable